sensor_id;sensor_type;location;lat;lon;timestamp;P1;durP1;ratioP1;P2;durP2;ratioP2
68870;SDS011;55906;52.278;6.808;2023-05-10T00:00:57;7.60;;;5.60;;
68870;SDS011;55906;52.278;6.808;2023-05-10T00:03:24;8.30;;;5.25;;
68870;SDS011;55906;52.278;6.808;2023-05-10T00:05:51;7.88;;;5.43;;
68870;SDS011;55906;52.278;6.808;2023-05-10T00:08:17;6.73;;;4.27;;
68870;SDS011;55906;52.278;6.808;2023-05-10T00:10:44;7.88;;;5.63;;
68870;SDS011;55906;52.278;6.808;2023-05-10T00:13:12;7.63;;;5.63;;
68870;SDS011;55906;52.278;6.808;2023-05-10T00:15:39;7.13;;;5.75;;
68870;SDS011;55906;52.278;6.808;2023-05-10T00:18:05;7.38;;;5.03;;
68870;SDS011;55906;52.278;6.808;2023-05-10T00:20:32;6.87;;;5.00;;
68870;SDS011;55906;52.278;6.808;2023-05-10T00:22:59;7.30;;;4.88;;
68870;SDS011;55906;52.278;6.808;2023-05-10T00:25:25;6.78;;;5.15;;
68870;SDS011;55906;52.278;6.808;2023-05-10T00:27:52;6.85;;;5.20;;
68870;SDS011;55906;52.278;6.808;2023-05-10T00:30:21;7.55;;;5.22;;
68870;SDS011;55906;52.278;6.808;2023-05-10T00:32:48;7.87;;;5.60;;
68870;SDS011;55906;52.278;6.808;2023-05-10T00:35:15;9.82;;;5.78;;
68870;SDS011;55906;52.278;6.808;2023-05-10T00:37:42;8.57;;;6.30;;
68870;SDS011;55906;52.278;6.808;2023-05-10T00:40:10;8.38;;;5.82;;
68870;SDS011;55906;52.278;6.808;2023-05-10T00:42:37;9.00;;;6.68;;
68870;SDS011;55906;52.278;6.808;2023-05-10T00:45:04;9.13;;;6.20;;
68870;SDS011;55906;52.278;6.808;2023-05-10T00:47:33;7.90;;;5.93;;
68870;SDS011;55906;52.278;6.808;2023-05-10T00:50:00;7.55;;;5.72;;
68870;SDS011;55906;52.278;6.808;2023-05-10T00:52:27;7.63;;;5.10;;
68870;SDS011;55906;52.278;6.808;2023-05-10T00:54:57;11.05;;;6.70;;
68870;SDS011;55906;52.278;6.808;2023-05-10T00:57:24;8.57;;;5.97;;
68870;SDS011;55906;52.278;6.808;2023-05-10T00:59:51;7.97;;;5.75;;
68870;SDS011;55906;52.278;6.808;2023-05-10T01:02:19;8.73;;;6.30;;
68870;SDS011;55906;52.278;6.808;2023-05-10T01:04:48;8.98;;;6.03;;
68870;SDS011;55906;52.278;6.808;2023-05-10T01:07:17;8.40;;;4.95;;
68870;SDS011;55906;52.278;6.808;2023-05-10T01:09:44;7.67;;;5.97;;
68870;SDS011;55906;52.278;6.808;2023-05-10T01:12:12;7.97;;;5.85;;
68870;SDS011;55906;52.278;6.808;2023-05-10T01:14:43;7.20;;;5.00;;
68870;SDS011;55906;52.278;6.808;2023-05-10T01:17:13;6.82;;;4.93;;
68870;SDS011;55906;52.278;6.808;2023-05-10T01:19:41;7.30;;;5.47;;
68870;SDS011;55906;52.278;6.808;2023-05-10T01:22:12;7.23;;;5.40;;
68870;SDS011;55906;52.278;6.808;2023-05-10T01:25:02;6.13;;;4.50;;
68870;SDS011;55906;52.278;6.808;2023-05-10T01:34:42;7.15;;;4.60;;
68870;SDS011;55906;52.278;6.808;2023-05-10T01:37:20;7.90;;;6.13;;
68870;SDS011;55906;52.278;6.808;2023-05-10T01:39:53;7.70;;;5.75;;
68870;SDS011;55906;52.278;6.808;2023-05-10T01:42:25;8.45;;;6.00;;
68870;SDS011;55906;52.278;6.808;2023-05-10T01:44:58;7.20;;;5.10;;
68870;SDS011;55906;52.278;6.808;2023-05-10T01:47:31;8.77;;;5.80;;
68870;SDS011;55906;52.278;6.808;2023-05-10T01:50:06;7.03;;;5.33;;
68870;SDS011;55906;52.278;6.808;2023-05-10T01:52:41;8.20;;;5.38;;
68870;SDS011;55906;52.278;6.808;2023-05-10T01:55:11;7.07;;;5.35;;
68870;SDS011;55906;52.278;6.808;2023-05-10T01:57:42;10.23;;;6.57;;
68870;SDS011;55906;52.278;6.808;2023-05-10T02:00:11;7.93;;;6.15;;
68870;SDS011;55906;52.278;6.808;2023-05-10T02:02:40;8.33;;;5.77;;
68870;SDS011;55906;52.278;6.808;2023-05-10T02:05:13;8.75;;;6.45;;
68870;SDS011;55906;52.278;6.808;2023-05-10T02:07:41;7.90;;;5.70;;
68870;SDS011;55906;52.278;6.808;2023-05-10T02:10:09;8.57;;;6.25;;
68870;SDS011;55906;52.278;6.808;2023-05-10T02:12:37;7.88;;;6.20;;
68870;SDS011;55906;52.278;6.808;2023-05-10T02:15:08;7.00;;;4.80;;
68870;SDS011;55906;52.278;6.808;2023-05-10T02:17:37;10.07;;;6.68;;
68870;SDS011;55906;52.278;6.808;2023-05-10T02:20:05;9.48;;;7.05;;
68870;SDS011;55906;52.278;6.808;2023-05-10T02:22:35;9.30;;;6.00;;
68870;SDS011;55906;52.278;6.808;2023-05-10T02:25:03;9.32;;;6.40;;
68870;SDS011;55906;52.278;6.808;2023-05-10T02:27:30;9.00;;;6.37;;
68870;SDS011;55906;52.278;6.808;2023-05-10T02:29:57;8.60;;;6.10;;
68870;SDS011;55906;52.278;6.808;2023-05-10T02:32:24;10.68;;;6.82;;
68870;SDS011;55906;52.278;6.808;2023-05-10T02:34:53;8.35;;;6.65;;
68870;SDS011;55906;52.278;6.808;2023-05-10T02:37:21;13.55;;;8.52;;
68870;SDS011;55906;52.278;6.808;2023-05-10T02:39:50;10.10;;;6.73;;
68870;SDS011;55906;52.278;6.808;2023-05-10T02:42:21;9.25;;;6.45;;
68870;SDS011;55906;52.278;6.808;2023-05-10T02:44:50;10.80;;;7.35;;
68870;SDS011;55906;52.278;6.808;2023-05-10T02:47:19;11.43;;;8.25;;
68870;SDS011;55906;52.278;6.808;2023-05-10T02:49:46;9.13;;;6.50;;
68870;SDS011;55906;52.278;6.808;2023-05-10T02:52:14;10.47;;;6.60;;
68870;SDS011;55906;52.278;6.808;2023-05-10T02:54:45;10.30;;;6.50;;
68870;SDS011;55906;52.278;6.808;2023-05-10T02:57:16;12.07;;;8.05;;
68870;SDS011;55906;52.278;6.808;2023-05-10T02:59:48;11.77;;;7.53;;
68870;SDS011;55906;52.278;6.808;2023-05-10T03:02:15;11.93;;;7.15;;
68870;SDS011;55906;52.278;6.808;2023-05-10T03:04:42;11.83;;;7.03;;
68870;SDS011;55906;52.278;6.808;2023-05-10T03:07:08;10.88;;;7.00;;
68870;SDS011;55906;52.278;6.808;2023-05-10T03:09:35;9.57;;;6.38;;
68870;SDS011;55906;52.278;6.808;2023-05-10T03:12:03;10.73;;;7.25;;
68870;SDS011;55906;52.278;6.808;2023-05-10T03:14:45;13.98;;;8.65;;
68870;SDS011;55906;52.278;6.808;2023-05-10T03:17:19;12.30;;;8.03;;
68870;SDS011;55906;52.278;6.808;2023-05-10T03:19:53;10.95;;;7.88;;
68870;SDS011;55906;52.278;6.808;2023-05-10T03:22:23;11.70;;;7.60;;
68870;SDS011;55906;52.278;6.808;2023-05-10T03:24:52;14.05;;;7.95;;
68870;SDS011;55906;52.278;6.808;2023-05-10T03:27:22;13.45;;;8.13;;
68870;SDS011;55906;52.278;6.808;2023-05-10T03:29:51;13.63;;;8.53;;
68870;SDS011;55906;52.278;6.808;2023-05-10T03:32:19;14.20;;;9.57;;
68870;SDS011;55906;52.278;6.808;2023-05-10T03:34:46;16.13;;;8.23;;
68870;SDS011;55906;52.278;6.808;2023-05-10T03:37:12;14.55;;;8.23;;
68870;SDS011;55906;52.278;6.808;2023-05-10T03:39:39;14.77;;;9.38;;
68870;SDS011;55906;52.278;6.808;2023-05-10T03:42:06;16.27;;;9.33;;
68870;SDS011;55906;52.278;6.808;2023-05-10T03:44:32;19.17;;;11.43;;
68870;SDS011;55906;52.278;6.808;2023-05-10T03:47:00;20.98;;;11.65;;
68870;SDS011;55906;52.278;6.808;2023-05-10T03:49:27;17.02;;;10.35;;
68870;SDS011;55906;52.278;6.808;2023-05-10T03:51:53;20.48;;;11.63;;
68870;SDS011;55906;52.278;6.808;2023-05-10T03:54:20;16.37;;;9.57;;
68870;SDS011;55906;52.278;6.808;2023-05-10T03:56:47;15.48;;;9.30;;
68870;SDS011;55906;52.278;6.808;2023-05-10T03:59:14;19.73;;;10.82;;
68870;SDS011;55906;52.278;6.808;2023-05-10T04:01:40;17.10;;;9.55;;
68870;SDS011;55906;52.278;6.808;2023-05-10T04:04:08;27.02;;;13.43;;
68870;SDS011;55906;52.278;6.808;2023-05-10T04:06:35;24.00;;;11.97;;
68870;SDS011;55906;52.278;6.808;2023-05-10T04:09:02;27.10;;;13.77;;
68870;SDS011;55906;52.278;6.808;2023-05-10T04:11:29;23.83;;;12.88;;
68870;SDS011;55906;52.278;6.808;2023-05-10T04:13:56;20.33;;;11.70;;
68870;SDS011;55906;52.278;6.808;2023-05-10T04:16:23;28.13;;;13.82;;
68870;SDS011;55906;52.278;6.808;2023-05-10T04:18:49;24.17;;;12.37;;
68870;SDS011;55906;52.278;6.808;2023-05-10T04:21:17;26.48;;;14.15;;
68870;SDS011;55906;52.278;6.808;2023-05-10T04:23:44;23.30;;;13.30;;
68870;SDS011;55906;52.278;6.808;2023-05-10T04:26:10;30.70;;;15.57;;
68870;SDS011;55906;52.278;6.808;2023-05-10T04:28:37;28.45;;;14.80;;
68870;SDS011;55906;52.278;6.808;2023-05-10T04:31:04;28.80;;;14.37;;
68870;SDS011;55906;52.278;6.808;2023-05-10T04:33:32;26.80;;;13.48;;
68870;SDS011;55906;52.278;6.808;2023-05-10T04:35:59;26.80;;;14.15;;
68870;SDS011;55906;52.278;6.808;2023-05-10T04:38:28;28.48;;;14.57;;
68870;SDS011;55906;52.278;6.808;2023-05-10T04:40:55;36.58;;;15.40;;
68870;SDS011;55906;52.278;6.808;2023-05-10T04:43:30;29.10;;;13.03;;
68870;SDS011;55906;52.278;6.808;2023-05-10T04:45:57;26.10;;;12.30;;
68870;SDS011;55906;52.278;6.808;2023-05-10T04:48:23;30.23;;;15.15;;
68870;SDS011;55906;52.278;6.808;2023-05-10T04:50:50;32.42;;;15.50;;
68870;SDS011;55906;52.278;6.808;2023-05-10T04:53:17;30.67;;;14.60;;
68870;SDS011;55906;52.278;6.808;2023-05-10T04:55:45;31.97;;;14.90;;
68870;SDS011;55906;52.278;6.808;2023-05-10T04:58:11;32.58;;;15.30;;
68870;SDS011;55906;52.278;6.808;2023-05-10T05:00:38;34.22;;;16.25;;
68870;SDS011;55906;52.278;6.808;2023-05-10T05:03:05;43.50;;;18.50;;
68870;SDS011;55906;52.278;6.808;2023-05-10T05:05:31;35.10;;;16.50;;
68870;SDS011;55906;52.278;6.808;2023-05-10T05:07:58;33.17;;;15.20;;
68870;SDS011;55906;52.278;6.808;2023-05-10T05:10:24;30.35;;;14.40;;
68870;SDS011;55906;52.278;6.808;2023-05-10T05:12:52;28.75;;;14.02;;
68870;SDS011;55906;52.278;6.808;2023-05-10T05:15:19;36.95;;;17.17;;
68870;SDS011;55906;52.278;6.808;2023-05-10T05:17:46;39.67;;;18.48;;
68870;SDS011;55906;52.278;6.808;2023-05-10T05:20:13;43.10;;;19.30;;
68870;SDS011;55906;52.278;6.808;2023-05-10T05:22:40;43.92;;;20.52;;
68870;SDS011;55906;52.278;6.808;2023-05-10T05:25:07;46.40;;;19.80;;
68870;SDS011;55906;52.278;6.808;2023-05-10T05:27:34;46.15;;;20.17;;
68870;SDS011;55906;52.278;6.808;2023-05-10T05:30:02;43.75;;;19.35;;
68870;SDS011;55906;52.278;6.808;2023-05-10T05:32:29;40.53;;;18.33;;
68870;SDS011;55906;52.278;6.808;2023-05-10T05:34:56;44.53;;;19.50;;
68870;SDS011;55906;52.278;6.808;2023-05-10T05:37:22;46.97;;;20.48;;
68870;SDS011;55906;52.278;6.808;2023-05-10T05:39:49;44.55;;;19.52;;
68870;SDS011;55906;52.278;6.808;2023-05-10T05:42:16;40.30;;;19.17;;
68870;SDS011;55906;52.278;6.808;2023-05-10T05:44:43;45.93;;;20.37;;
68870;SDS011;55906;52.278;6.808;2023-05-10T05:47:12;52.20;;;21.60;;
68870;SDS011;55906;52.278;6.808;2023-05-10T05:49:38;45.38;;;20.73;;
68870;SDS011;55906;52.278;6.808;2023-05-10T05:52:05;47.97;;;20.98;;
68870;SDS011;55906;52.278;6.808;2023-05-10T05:54:31;47.10;;;20.20;;
68870;SDS011;55906;52.278;6.808;2023-05-10T05:56:58;49.80;;;21.50;;
68870;SDS011;55906;52.278;6.808;2023-05-10T05:59:26;46.50;;;19.55;;
68870;SDS011;55906;52.278;6.808;2023-05-10T06:01:53;51.75;;;22.13;;
68870;SDS011;55906;52.278;6.808;2023-05-10T06:04:21;47.40;;;20.23;;
68870;SDS011;55906;52.278;6.808;2023-05-10T06:06:48;43.45;;;19.33;;
68870;SDS011;55906;52.278;6.808;2023-05-10T06:09:14;43.17;;;19.00;;
68870;SDS011;55906;52.278;6.808;2023-05-10T06:11:41;41.55;;;19.88;;
68870;SDS011;55906;52.278;6.808;2023-05-10T06:14:07;46.95;;;22.00;;
68870;SDS011;55906;52.278;6.808;2023-05-10T06:16:34;48.58;;;20.80;;
68870;SDS011;55906;52.278;6.808;2023-05-10T06:19:01;44.05;;;20.40;;
68870;SDS011;55906;52.278;6.808;2023-05-10T06:21:29;36.53;;;17.17;;
68870;SDS011;55906;52.278;6.808;2023-05-10T06:23:56;40.42;;;19.77;;
68870;SDS011;55906;52.278;6.808;2023-05-10T06:26:23;44.83;;;18.80;;
68870;SDS011;55906;52.278;6.808;2023-05-10T06:28:49;42.40;;;19.13;;
68870;SDS011;55906;52.278;6.808;2023-05-10T06:31:16;39.08;;;18.13;;
68870;SDS011;55906;52.278;6.808;2023-05-10T06:33:43;43.73;;;19.80;;
68870;SDS011;55906;52.278;6.808;2023-05-10T06:36:10;38.75;;;18.42;;
68870;SDS011;55906;52.278;6.808;2023-05-10T06:38:38;41.58;;;19.73;;
68870;SDS011;55906;52.278;6.808;2023-05-10T06:41:04;41.35;;;20.08;;
68870;SDS011;55906;52.278;6.808;2023-05-10T06:43:31;37.53;;;18.40;;
68870;SDS011;55906;52.278;6.808;2023-05-10T06:45:58;43.07;;;19.30;;
68870;SDS011;55906;52.278;6.808;2023-05-10T06:48:24;40.22;;;19.52;;
68870;SDS011;55906;52.278;6.808;2023-05-10T06:50:51;45.78;;;20.00;;
68870;SDS011;55906;52.278;6.808;2023-05-10T06:53:17;44.63;;;20.40;;
68870;SDS011;55906;52.278;6.808;2023-05-10T06:55:45;41.35;;;19.88;;
68870;SDS011;55906;52.278;6.808;2023-05-10T06:58:12;36.70;;;18.03;;
68870;SDS011;55906;52.278;6.808;2023-05-10T07:00:39;42.83;;;18.80;;
68870;SDS011;55906;52.278;6.808;2023-05-10T07:03:08;42.78;;;19.63;;
68870;SDS011;55906;52.278;6.808;2023-05-10T07:05:35;45.25;;;19.55;;
68870;SDS011;55906;52.278;6.808;2023-05-10T07:08:01;43.45;;;19.38;;
68870;SDS011;55906;52.278;6.808;2023-05-10T07:10:28;34.07;;;16.13;;
68870;SDS011;55906;52.278;6.808;2023-05-10T07:12:56;44.78;;;17.70;;
68870;SDS011;55906;52.278;6.808;2023-05-10T07:15:23;42.33;;;19.33;;
68870;SDS011;55906;52.278;6.808;2023-05-10T07:17:49;37.08;;;18.67;;
68870;SDS011;55906;52.278;6.808;2023-05-10T07:20:16;38.30;;;18.05;;
68870;SDS011;55906;52.278;6.808;2023-05-10T07:22:43;42.07;;;18.87;;
68870;SDS011;55906;52.278;6.808;2023-05-10T07:25:10;32.42;;;16.02;;
68870;SDS011;55906;52.278;6.808;2023-05-10T07:27:36;37.55;;;19.15;;
68870;SDS011;55906;52.278;6.808;2023-05-10T07:30:05;42.03;;;19.85;;
68870;SDS011;55906;52.278;6.808;2023-05-10T07:32:33;42.75;;;19.27;;
68870;SDS011;55906;52.278;6.808;2023-05-10T07:34:59;39.77;;;18.23;;
68870;SDS011;55906;52.278;6.808;2023-05-10T07:37:26;39.42;;;17.98;;
68870;SDS011;55906;52.278;6.808;2023-05-10T07:39:52;39.53;;;18.15;;
68870;SDS011;55906;52.278;6.808;2023-05-10T07:42:19;32.90;;;16.63;;
68870;SDS011;55906;52.278;6.808;2023-05-10T07:44:46;34.85;;;16.73;;
68870;SDS011;55906;52.278;6.808;2023-05-10T07:47:14;33.33;;;15.80;;
68870;SDS011;55906;52.278;6.808;2023-05-10T07:49:40;32.00;;;16.27;;
68870;SDS011;55906;52.278;6.808;2023-05-10T07:52:07;36.03;;;18.23;;
68870;SDS011;55906;52.278;6.808;2023-05-10T07:54:33;36.28;;;16.90;;
68870;SDS011;55906;52.278;6.808;2023-05-10T07:57:00;36.97;;;17.58;;
68870;SDS011;55906;52.278;6.808;2023-05-10T07:59:27;34.47;;;16.60;;
68870;SDS011;55906;52.278;6.808;2023-05-10T08:01:53;33.50;;;15.80;;
68870;SDS011;55906;52.278;6.808;2023-05-10T08:04:22;37.92;;;17.85;;
68870;SDS011;55906;52.278;6.808;2023-05-10T08:06:49;32.53;;;15.65;;
68870;SDS011;55906;52.278;6.808;2023-05-10T08:09:15;36.60;;;16.55;;
68870;SDS011;55906;52.278;6.808;2023-05-10T08:11:42;30.43;;;14.53;;
68870;SDS011;55906;52.278;6.808;2023-05-10T08:14:09;31.95;;;14.88;;
68870;SDS011;55906;52.278;6.808;2023-05-10T08:16:36;29.52;;;13.43;;
68870;SDS011;55906;52.278;6.808;2023-05-10T08:19:02;30.30;;;14.43;;
68870;SDS011;55906;52.278;6.808;2023-05-10T08:21:30;32.80;;;16.08;;
68870;SDS011;55906;52.278;6.808;2023-05-10T08:23:57;37.17;;;16.13;;
68870;SDS011;55906;52.278;6.808;2023-05-10T08:26:24;37.67;;;16.42;;
68870;SDS011;55906;52.278;6.808;2023-05-10T08:28:51;37.95;;;15.40;;
68870;SDS011;55906;52.278;6.808;2023-05-10T08:31:17;32.85;;;15.05;;
68870;SDS011;55906;52.278;6.808;2023-05-10T08:33:44;38.22;;;16.20;;
68870;SDS011;55906;52.278;6.808;2023-05-10T08:36:11;40.77;;;17.47;;
68870;SDS011;55906;52.278;6.808;2023-05-10T08:38:40;34.97;;;15.93;;
68870;SDS011;55906;52.278;6.808;2023-05-10T08:41:07;41.75;;;17.45;;
68870;SDS011;55906;52.278;6.808;2023-05-10T08:43:33;34.20;;;15.43;;
68870;SDS011;55906;52.278;6.808;2023-05-10T08:46:02;41.15;;;16.65;;
68870;SDS011;55906;52.278;6.808;2023-05-10T08:48:31;38.70;;;16.80;;
68870;SDS011;55906;52.278;6.808;2023-05-10T08:51:00;35.35;;;15.43;;
68870;SDS011;55906;52.278;6.808;2023-05-10T08:53:29;30.80;;;13.82;;
68870;SDS011;55906;52.278;6.808;2023-05-10T08:56:00;33.33;;;14.48;;
68870;SDS011;55906;52.278;6.808;2023-05-10T08:58:28;38.08;;;16.33;;
68870;SDS011;55906;52.278;6.808;2023-05-10T09:00:55;40.97;;;17.37;;
68870;SDS011;55906;52.278;6.808;2023-05-10T09:03:23;33.92;;;15.27;;
68870;SDS011;55906;52.278;6.808;2023-05-10T09:05:50;31.63;;;14.77;;
68870;SDS011;55906;52.278;6.808;2023-05-10T09:08:17;36.80;;;14.55;;
68870;SDS011;55906;52.278;6.808;2023-05-10T09:10:44;34.13;;;14.60;;
68870;SDS011;55906;52.278;6.808;2023-05-10T09:13:14;38.33;;;16.10;;
68870;SDS011;55906;52.278;6.808;2023-05-10T09:15:41;36.35;;;14.30;;
68870;SDS011;55906;52.278;6.808;2023-05-10T09:18:09;36.15;;;14.90;;
68870;SDS011;55906;52.278;6.808;2023-05-10T09:20:36;33.60;;;14.98;;
68870;SDS011;55906;52.278;6.808;2023-05-10T09:23:02;31.63;;;13.50;;
68870;SDS011;55906;52.278;6.808;2023-05-10T09:25:30;31.83;;;14.20;;
68870;SDS011;55906;52.278;6.808;2023-05-10T09:27:58;31.52;;;14.05;;
68870;SDS011;55906;52.278;6.808;2023-05-10T09:30:26;33.50;;;15.23;;
68870;SDS011;55906;52.278;6.808;2023-05-10T09:32:54;33.33;;;15.55;;
68870;SDS011;55906;52.278;6.808;2023-05-10T09:35:22;33.25;;;14.30;;
68870;SDS011;55906;52.278;6.808;2023-05-10T09:37:51;33.00;;;14.93;;
68870;SDS011;55906;52.278;6.808;2023-05-10T09:40:20;29.63;;;13.18;;
68870;SDS011;55906;52.278;6.808;2023-05-10T09:42:51;32.00;;;14.00;;
68870;SDS011;55906;52.278;6.808;2023-05-10T09:45:21;29.95;;;13.57;;
68870;SDS011;55906;52.278;6.808;2023-05-10T09:47:50;26.00;;;12.10;;
68870;SDS011;55906;52.278;6.808;2023-05-10T09:50:17;29.27;;;12.43;;
68870;SDS011;55906;52.278;6.808;2023-05-10T09:52:45;22.95;;;10.73;;
68870;SDS011;55906;52.278;6.808;2023-05-10T09:55:14;17.50;;;9.38;;
68870;SDS011;55906;52.278;6.808;2023-05-10T09:57:41;21.23;;;9.23;;
68870;SDS011;55906;52.278;6.808;2023-05-10T10:00:08;20.75;;;9.20;;
68870;SDS011;55906;52.278;6.808;2023-05-10T10:02:36;15.03;;;7.93;;
68870;SDS011;55906;52.278;6.808;2023-05-10T10:05:05;12.25;;;7.60;;
68870;SDS011;55906;52.278;6.808;2023-05-10T10:07:32;13.68;;;7.78;;
68870;SDS011;55906;52.278;6.808;2023-05-10T10:10:00;16.40;;;8.43;;
68870;SDS011;55906;52.278;6.808;2023-05-10T10:12:27;15.88;;;9.27;;
68870;SDS011;55906;52.278;6.808;2023-05-10T10:14:54;14.37;;;8.43;;
68870;SDS011;55906;52.278;6.808;2023-05-10T10:17:22;16.90;;;8.60;;
68870;SDS011;55906;52.278;6.808;2023-05-10T10:19:51;14.88;;;8.57;;
68870;SDS011;55906;52.278;6.808;2023-05-10T10:22:19;13.43;;;7.78;;
68870;SDS011;55906;52.278;6.808;2023-05-10T10:24:45;12.20;;;7.47;;
68870;SDS011;55906;52.278;6.808;2023-05-10T10:27:15;15.63;;;7.53;;
68870;SDS011;55906;52.278;6.808;2023-05-10T10:29:52;15.20;;;7.70;;
68870;SDS011;55906;52.278;6.808;2023-05-10T10:32:32;15.45;;;7.47;;
68870;SDS011;55906;52.278;6.808;2023-05-10T10:35:08;13.98;;;7.75;;
68870;SDS011;55906;52.278;6.808;2023-05-10T10:37:44;15.43;;;8.77;;
68870;SDS011;55906;52.278;6.808;2023-05-10T10:40:25;13.97;;;7.70;;
68870;SDS011;55906;52.278;6.808;2023-05-10T10:42:53;14.48;;;7.78;;
68870;SDS011;55906;52.278;6.808;2023-05-10T10:45:21;13.95;;;8.05;;
68870;SDS011;55906;52.278;6.808;2023-05-10T10:47:49;12.82;;;7.10;;
68870;SDS011;55906;52.278;6.808;2023-05-10T10:50:43;16.88;;;9.52;;
68870;SDS011;55906;52.278;6.808;2023-05-10T10:53:12;14.63;;;8.23;;
68870;SDS011;55906;52.278;6.808;2023-05-10T10:55:44;12.43;;;7.32;;
68870;SDS011;55906;52.278;6.808;2023-05-10T10:58:12;12.50;;;7.43;;
68870;SDS011;55906;52.278;6.808;2023-05-10T11:01:08;12.75;;;7.70;;
68870;SDS011;55906;52.278;6.808;2023-05-10T11:03:36;14.80;;;8.75;;
68870;SDS011;55906;52.278;6.808;2023-05-10T11:06:03;13.20;;;7.53;;
68870;SDS011;55906;52.278;6.808;2023-05-10T11:08:31;11.20;;;7.07;;
68870;SDS011;55906;52.278;6.808;2023-05-10T11:11:03;12.30;;;7.15;;
68870;SDS011;55906;52.278;6.808;2023-05-10T11:13:33;11.13;;;6.15;;
68870;SDS011;55906;52.278;6.808;2023-05-10T11:16:10;11.35;;;6.75;;
68870;SDS011;55906;52.278;6.808;2023-05-10T11:18:39;9.77;;;5.93;;
68870;SDS011;55906;52.278;6.808;2023-05-10T11:21:07;13.52;;;7.28;;
68870;SDS011;55906;52.278;6.808;2023-05-10T11:23:48;8.55;;;6.00;;
68870;SDS011;55906;52.278;6.808;2023-05-10T11:26:16;11.02;;;6.30;;
68870;SDS011;55906;52.278;6.808;2023-05-10T11:28:43;11.27;;;6.72;;
68870;SDS011;55906;52.278;6.808;2023-05-10T11:31:10;11.73;;;6.80;;
68870;SDS011;55906;52.278;6.808;2023-05-10T11:33:42;10.70;;;6.47;;
68870;SDS011;55906;52.278;6.808;2023-05-10T11:36:10;10.52;;;5.90;;
68870;SDS011;55906;52.278;6.808;2023-05-10T11:38:37;8.80;;;5.90;;
68870;SDS011;55906;52.278;6.808;2023-05-10T11:41:06;10.35;;;5.55;;
68870;SDS011;55906;52.278;6.808;2023-05-10T11:43:34;8.47;;;5.27;;
68870;SDS011;55906;52.278;6.808;2023-05-10T11:46:03;8.50;;;5.35;;
68870;SDS011;55906;52.278;6.808;2023-05-10T11:48:30;11.15;;;6.20;;
68870;SDS011;55906;52.278;6.808;2023-05-10T11:50:57;10.15;;;6.30;;
68870;SDS011;55906;52.278;6.808;2023-05-10T11:53:25;11.73;;;7.10;;
68870;SDS011;55906;52.278;6.808;2023-05-10T11:55:52;9.17;;;6.00;;
68870;SDS011;55906;52.278;6.808;2023-05-10T11:58:20;12.23;;;7.20;;
68870;SDS011;55906;52.278;6.808;2023-05-10T12:00:48;8.63;;;5.32;;
68870;SDS011;55906;52.278;6.808;2023-05-10T12:03:16;8.75;;;5.38;;
68870;SDS011;55906;52.278;6.808;2023-05-10T12:05:43;12.43;;;6.70;;
68870;SDS011;55906;52.278;6.808;2023-05-10T12:08:13;15.03;;;8.33;;
68870;SDS011;55906;52.278;6.808;2023-05-10T12:10:41;11.88;;;6.78;;
68870;SDS011;55906;52.278;6.808;2023-05-10T12:13:10;10.95;;;6.25;;
68870;SDS011;55906;52.278;6.808;2023-05-10T12:15:40;12.02;;;6.88;;
68870;SDS011;55906;52.278;6.808;2023-05-10T12:18:08;13.45;;;7.20;;
68870;SDS011;55906;52.278;6.808;2023-05-10T12:20:36;11.80;;;7.40;;
68870;SDS011;55906;52.278;6.808;2023-05-10T12:23:03;12.13;;;6.82;;
68870;SDS011;55906;52.278;6.808;2023-05-10T12:25:31;15.18;;;7.65;;
68870;SDS011;55906;52.278;6.808;2023-05-10T12:27:59;13.70;;;7.38;;
68870;SDS011;55906;52.278;6.808;2023-05-10T12:30:29;15.43;;;8.43;;
68870;SDS011;55906;52.278;6.808;2023-05-10T12:33:00;10.50;;;6.13;;
68870;SDS011;55906;52.278;6.808;2023-05-10T12:35:29;12.73;;;7.65;;
68870;SDS011;55906;52.278;6.808;2023-05-10T12:37:57;12.63;;;6.90;;
68870;SDS011;55906;52.278;6.808;2023-05-10T12:40:23;9.95;;;6.43;;
68870;SDS011;55906;52.278;6.808;2023-05-10T12:42:50;11.55;;;6.05;;
68870;SDS011;55906;52.278;6.808;2023-05-10T12:45:17;12.67;;;7.20;;
68870;SDS011;55906;52.278;6.808;2023-05-10T12:47:44;10.07;;;6.35;;
68870;SDS011;55906;52.278;6.808;2023-05-10T12:50:12;11.73;;;6.85;;
68870;SDS011;55906;52.278;6.808;2023-05-10T12:52:39;8.65;;;5.57;;
68870;SDS011;55906;52.278;6.808;2023-05-10T12:55:05;9.82;;;5.25;;
68870;SDS011;55906;52.278;6.808;2023-05-10T12:57:32;9.67;;;5.57;;
68870;SDS011;55906;52.278;6.808;2023-05-10T12:59:59;10.15;;;5.60;;
68870;SDS011;55906;52.278;6.808;2023-05-10T13:02:25;11.30;;;6.53;;
68870;SDS011;55906;52.278;6.808;2023-05-10T13:04:52;12.63;;;6.95;;
68870;SDS011;55906;52.278;6.808;2023-05-10T13:07:20;10.80;;;6.43;;
68870;SDS011;55906;52.278;6.808;2023-05-10T13:09:47;8.40;;;5.60;;
68870;SDS011;55906;52.278;6.808;2023-05-10T13:12:13;11.27;;;5.60;;
68870;SDS011;55906;52.278;6.808;2023-05-10T13:14:40;12.05;;;6.72;;
68870;SDS011;55906;52.278;6.808;2023-05-10T13:17:07;13.65;;;6.82;;
68870;SDS011;55906;52.278;6.808;2023-05-10T13:19:34;11.65;;;6.68;;
68870;SDS011;55906;52.278;6.808;2023-05-10T13:22:00;12.97;;;7.40;;
68870;SDS011;55906;52.278;6.808;2023-05-10T13:24:28;11.07;;;6.72;;
68870;SDS011;55906;52.278;6.808;2023-05-10T13:26:55;9.80;;;5.93;;
68870;SDS011;55906;52.278;6.808;2023-05-10T13:29:22;10.25;;;5.72;;
68870;SDS011;55906;52.278;6.808;2023-05-10T13:31:48;8.88;;;5.30;;
68870;SDS011;55906;52.278;6.808;2023-05-10T13:34:15;8.17;;;5.13;;
68870;SDS011;55906;52.278;6.808;2023-05-10T13:36:41;7.88;;;4.97;;
68870;SDS011;55906;52.278;6.808;2023-05-10T13:39:08;8.90;;;5.85;;
68870;SDS011;55906;52.278;6.808;2023-05-10T13:41:36;8.23;;;5.18;;
68870;SDS011;55906;52.278;6.808;2023-05-10T13:44:03;10.68;;;6.00;;
68870;SDS011;55906;52.278;6.808;2023-05-10T13:46:29;9.63;;;5.53;;
68870;SDS011;55906;52.278;6.808;2023-05-10T13:48:56;10.50;;;5.82;;
68870;SDS011;55906;52.278;6.808;2023-05-10T13:51:23;9.02;;;5.40;;
68870;SDS011;55906;52.278;6.808;2023-05-10T13:53:49;7.82;;;5.57;;
68870;SDS011;55906;52.278;6.808;2023-05-10T13:56:17;8.73;;;5.50;;
68870;SDS011;55906;52.278;6.808;2023-05-10T13:58:45;9.20;;;5.43;;
68870;SDS011;55906;52.278;6.808;2023-05-10T14:01:12;9.20;;;5.70;;
68870;SDS011;55906;52.278;6.808;2023-05-10T14:03:39;9.10;;;5.15;;
68870;SDS011;55906;52.278;6.808;2023-05-10T14:06:05;9.45;;;5.07;;
68870;SDS011;55906;52.278;6.808;2023-05-10T14:08:33;7.65;;;4.68;;
68870;SDS011;55906;52.278;6.808;2023-05-10T14:11:00;6.90;;;4.43;;
68870;SDS011;55906;52.278;6.808;2023-05-10T14:13:27;9.82;;;5.38;;
68870;SDS011;55906;52.278;6.808;2023-05-10T14:15:55;7.00;;;4.75;;
68870;SDS011;55906;52.278;6.808;2023-05-10T14:18:23;7.97;;;4.90;;
68870;SDS011;55906;52.278;6.808;2023-05-10T14:20:50;7.38;;;5.10;;
68870;SDS011;55906;52.278;6.808;2023-05-10T14:23:17;6.93;;;4.27;;
68870;SDS011;55906;52.278;6.808;2023-05-10T14:25:44;6.60;;;3.80;;
68870;SDS011;55906;52.278;6.808;2023-05-10T14:28:11;6.78;;;4.15;;
68870;SDS011;55906;52.278;6.808;2023-05-10T14:30:38;6.97;;;3.90;;
68870;SDS011;55906;52.278;6.808;2023-05-10T14:33:06;7.05;;;4.57;;
68870;SDS011;55906;52.278;6.808;2023-05-10T14:35:32;6.93;;;3.80;;
68870;SDS011;55906;52.278;6.808;2023-05-10T14:37:59;7.07;;;4.00;;
68870;SDS011;55906;52.278;6.808;2023-05-10T14:40:26;7.80;;;4.28;;
68870;SDS011;55906;52.278;6.808;2023-05-10T14:42:53;6.50;;;3.80;;
68870;SDS011;55906;52.278;6.808;2023-05-10T14:45:21;7.00;;;4.18;;